sensor_id;sensor_type;location;lat;lon;timestamp;pressure;altitude;pressure_sealevel;temperature;humidity
30614;BME280;17381;51.690;5.270;2023-02-16T00:02:04;102399.84;;;5.92;74.19
30614;BME280;17381;51.690;5.270;2023-02-16T00:05:04;102389.31;;;5.87;74.14
30614;BME280;17381;51.690;5.270;2023-02-16T00:08:20;102347.03;;;5.58;74.38
30614;BME280;17381;51.690;5.270;2023-02-16T00:11:09;102401.53;;;5.91;74.13
30614;BME280;17381;51.690;5.270;2023-02-16T00:14:18;102395.41;;;5.87;74.44
30614;BME280;17381;51.690;5.270;2023-02-16T00:17:22;102398.00;;;5.87;74.37
30614;BME280;17381;51.690;5.270;2023-02-16T00:20:01;102349.78;;;5.65;74.47
30614;BME280;17381;51.690;5.270;2023-02-16T00:23:01;102394.63;;;5.92;74.54
30614;BME280;17381;51.690;5.270;2023-02-16T00:25:53;102394.63;;;5.92;74.46
30614;BME280;17381;51.690;5.270;2023-02-16T00:28:39;102389.31;;;5.88;74.39
30614;BME280;17381;51.690;5.270;2023-02-16T00:31:34;102385.75;;;5.83;74.23
30614;BME280;17381;51.690;5.270;2023-02-16T00:34:51;102398.88;;;5.88;74.17
30614;BME280;17381;51.690;5.270;2023-02-16T00:37:48;102332.84;;;5.43;74.31
30614;BME280;17381;51.690;5.270;2023-02-16T00:40:45;102399.59;;;5.79;74.27
30614;BME280;17381;51.690;5.270;2023-02-16T00:43:44;102395.31;;;5.81;74.55
30614;BME280;17381;51.690;5.270;2023-02-16T00:46:31;102391.81;;;5.81;74.43
30614;BME280;17381;51.690;5.270;2023-02-16T00:49:41;102387.47;;;5.83;74.34
30614;BME280;17381;51.690;5.270;2023-02-16T00:52:59;102389.25;;;5.84;74.39
30614;BME280;17381;51.690;5.270;2023-02-16T00:55:54;102394.44;;;5.82;74.53
30614;BME280;17381;51.690;5.270;2023-02-16T00:58:40;102373.47;;;5.76;74.30
30614;BME280;17381;51.690;5.270;2023-02-16T01:01:25;102391.81;;;5.82;74.27
30614;BME280;17381;51.690;5.270;2023-02-16T01:04:25;102386.56;;;5.79;74.38
30614;BME280;17381;51.690;5.270;2023-02-16T01:07:12;102382.22;;;5.78;74.60
30614;BME280;17381;51.690;5.270;2023-02-16T01:10:18;102381.25;;;5.75;74.14
30614;BME280;17381;51.690;5.270;2023-02-16T01:13:29;102358.34;;;5.58;74.42
30614;BME280;17381;51.690;5.270;2023-02-16T01:19:33;102372.41;;;5.66;74.75
30614;BME280;17381;51.690;5.270;2023-02-16T01:22:29;102369.84;;;5.68;74.79
30614;BME280;17381;51.690;5.270;2023-02-16T01:25:37;102370.66;;;5.65;74.30
30614;BME280;17381;51.690;5.270;2023-02-16T01:28:27;102362.78;;;5.64;74.88
30614;BME280;17381;51.690;5.270;2023-02-16T01:31:24;102355.75;;;5.60;74.46
30614;BME280;17381;51.690;5.270;2023-02-16T01:34:34;102341.88;;;5.61;74.64
30614;BME280;17381;51.690;5.270;2023-02-16T01:37:28;102345.44;;;5.67;75.11
30614;BME280;17381;51.690;5.270;2023-02-16T01:40:42;102356.94;;;5.77;74.90
30614;BME280;17381;51.690;5.270;2023-02-16T01:43:49;102351.72;;;5.76;74.52
30614;BME280;17381;51.690;5.270;2023-02-16T01:47:23;102352.53;;;5.73;74.66
30614;BME280;17381;51.690;5.270;2023-02-16T01:50:19;102352.47;;;5.70;74.91
30614;BME280;17381;51.690;5.270;2023-02-16T01:53:23;102355.00;;;5.65;74.67
30614;BME280;17381;51.690;5.270;2023-02-16T02:00:06;102346.16;;;5.59;74.87
30614;BME280;17381;51.690;5.270;2023-02-16T02:03:07;102349.59;;;5.56;74.50
30614;BME280;17381;51.690;5.270;2023-02-16T02:06:01;102349.50;;;5.52;74.67
30614;BME280;17381;51.690;5.270;2023-02-16T02:08:52;102346.13;;;5.56;74.55
30614;BME280;17381;51.690;5.270;2023-02-16T02:11:44;102340.00;;;5.54;74.79
30614;BME280;17381;51.690;5.270;2023-02-16T02:14:40;102325.09;;;5.48;74.66
30614;BME280;17381;51.690;5.270;2023-02-16T02:17:25;102339.94;;;5.51;74.94
30614;BME280;17381;51.690;5.270;2023-02-16T02:20:36;102323.44;;;5.52;74.92
30614;BME280;17381;51.690;5.270;2023-02-16T02:24:12;102325.97;;;5.49;75.07
30614;BME280;17381;51.690;5.270;2023-02-16T02:27:24;102318.19;;;5.50;74.92
30614;BME280;17381;51.690;5.270;2023-02-16T02:43:53;102301.75;;;5.53;75.09
30614;BME280;17381;51.690;5.270;2023-02-16T02:46:55;102254.34;;;5.28;75.52
30614;BME280;17381;51.690;5.270;2023-02-16T02:49:38;102306.19;;;5.58;75.50
30614;BME280;17381;51.690;5.270;2023-02-16T02:52:47;102297.28;;;5.49;75.31
30614;BME280;17381;51.690;5.270;2023-02-16T02:55:50;102286.03;;;5.51;75.28
30614;BME280;17381;51.690;5.270;2023-02-16T02:58:40;102298.97;;;5.45;75.55
30614;BME280;17381;51.690;5.270;2023-02-16T03:02:01;102292.03;;;5.45;75.58
30614;BME280;17381;51.690;5.270;2023-02-16T03:04:47;102279.63;;;5.32;75.26
30614;BME280;17381;51.690;5.270;2023-02-16T03:07:35;102288.47;;;5.42;75.53
30614;BME280;17381;51.690;5.270;2023-02-16T03:10:31;102283.19;;;5.37;75.45
30614;BME280;17381;51.690;5.270;2023-02-16T03:13:31;102281.41;;;5.36;75.45
30614;BME280;17381;51.690;5.270;2023-02-16T03:16:45;102283.09;;;5.34;75.50
30614;BME280;17381;51.690;5.270;2023-02-16T03:19:55;102281.31;;;5.30;75.61
30614;BME280;17381;51.690;5.270;2023-02-16T03:22:52;102286.41;;;5.24;75.72
30614;BME280;17381;51.690;5.270;2023-02-16T03:26:00;102280.28;;;5.22;75.59
30614;BME280;17381;51.690;5.270;2023-02-16T03:28:48;102262.81;;;5.18;75.84
30614;BME280;17381;51.690;5.270;2023-02-16T03:31:54;102261.91;;;5.14;76.20
30614;BME280;17381;51.690;5.270;2023-02-16T03:35:07;102260.22;;;5.18;75.92
30614;BME280;17381;51.690;5.270;2023-02-16T03:37:54;102256.84;;;5.23;76.21
30614;BME280;17381;51.690;5.270;2023-02-16T03:41:02;102267.47;;;5.33;76.10
30614;BME280;17381;51.690;5.270;2023-02-16T03:43:56;102248.19;;;5.24;76.25
30614;BME280;17381;51.690;5.270;2023-02-16T03:46:59;102271.03;;;5.39;75.95
30614;BME280;17381;51.690;5.270;2023-02-16T03:49:37;102275.44;;;5.40;76.18
30614;BME280;17381;51.690;5.270;2023-02-16T03:52:13;102274.56;;;5.40;75.63
30614;BME280;17381;51.690;5.270;2023-02-16T03:55:09;102275.44;;;5.42;75.73
30614;BME280;17381;51.690;5.270;2023-02-16T03:57:58;102271.84;;;5.35;75.65
30614;BME280;17381;51.690;5.270;2023-02-16T04:00:27;102287.66;;;5.44;75.64
30614;BME280;17381;51.690;5.270;2023-02-16T04:03:20;102228.84;;;5.12;75.58
30614;BME280;17381;51.690;5.270;2023-02-16T04:06:22;102283.41;;;5.50;75.64
30614;BME280;17381;51.690;5.270;2023-02-16T04:09:11;102291.31;;;5.53;75.58
30614;BME280;17381;51.690;5.270;2023-02-16T04:11:55;102271.22;;;5.49;75.47
30614;BME280;17381;51.690;5.270;2023-02-16T04:14:54;102284.50;;;5.61;75.86
30614;BME280;17381;51.690;5.270;2023-02-16T04:17:42;102243.94;;;5.31;75.32
30614;BME280;17381;51.690;5.270;2023-02-16T04:20:26;102288.06;;;5.67;75.42
30614;BME280;17381;51.690;5.270;2023-02-16T04:23:18;102288.16;;;5.71;75.66
30614;BME280;17381;51.690;5.270;2023-02-16T04:26:00;102280.38;;;5.74;75.60
30614;BME280;17381;51.690;5.270;2023-02-16T04:28:57;102277.78;;;5.75;75.38
30614;BME280;17381;51.690;5.270;2023-02-16T04:31:38;102286.50;;;5.77;75.56
30614;BME280;17381;51.690;5.270;2023-02-16T04:34:20;102287.38;;;5.76;74.98
30614;BME280;17381;51.690;5.270;2023-02-16T04:40:39;102279.41;;;5.70;75.04
30614;BME280;17381;51.690;5.270;2023-02-16T04:43:38;102268.06;;;5.66;75.28
30614;BME280;17381;51.690;5.270;2023-02-16T04:46:28;102203.03;;;5.25;75.09
30614;BME280;17381;51.690;5.270;2023-02-16T04:48:59;102230.38;;;5.47;75.46
30614;BME280;17381;51.690;5.270;2023-02-16T04:55:03;102281.28;;;5.77;75.03
30614;BME280;17381;51.690;5.270;2023-02-16T04:57:41;102290.94;;;5.81;75.01
30614;BME280;17381;51.690;5.270;2023-02-16T05:00:44;102278.78;;;5.83;74.84
30614;BME280;17381;51.690;5.270;2023-02-16T05:03:39;102273.56;;;5.83;75.39
30614;BME280;17381;51.690;5.270;2023-02-16T05:06:39;102270.94;;;5.83;75.14
30614;BME280;17381;51.690;5.270;2023-02-16T05:09:09;102279.69;;;5.85;75.19
30614;BME280;17381;51.690;5.270;2023-02-16T05:12:08;102276.28;;;5.89;75.33
30614;BME280;17381;51.690;5.270;2023-02-16T05:15:22;102275.44;;;5.90;74.95
30614;BME280;17381;51.690;5.270;2023-02-16T05:18:13;102280.69;;;5.92;75.13
30614;BME280;17381;51.690;5.270;2023-02-16T05:21:02;102269.38;;;5.92;75.30
30614;BME280;17381;51.690;5.270;2023-02-16T05:24:11;102183.44;;;5.47;75.18
30614;BME280;17381;51.690;5.270;2023-02-16T05:30:20;102229.91;;;5.72;75.29
30614;BME280;17381;51.690;5.270;2023-02-16T05:33:15;102265.84;;;5.89;75.13
30614;BME280;17381;51.690;5.270;2023-02-16T05:36:07;102221.16;;;5.68;75.27
30614;BME280;17381;51.690;5.270;2023-02-16T05:38:53;102262.34;;;5.87;75.25
30614;BME280;17381;51.690;5.270;2023-02-16T05:41:44;102249.25;;;5.86;75.32
30614;BME280;17381;51.690;5.270;2023-02-16T05:44:39;102187.81;;;5.50;75.09
30614;BME280;17381;51.690;5.270;2023-02-16T05:47:42;102252.78;;;5.88;75.34
30614;BME280;17381;51.690;5.270;2023-02-16T05:50:35;102261.50;;;5.90;75.61
30614;BME280;17381;51.690;5.270;2023-02-16T05:53:53;102249.34;;;5.89;75.46
30614;BME280;17381;51.690;5.270;2023-02-16T05:56:54;102245.78;;;5.85;75.23
30614;BME280;17381;51.690;5.270;2023-02-16T06:00:06;102251.03;;;5.87;75.52
30614;BME280;17381;51.690;5.270;2023-02-16T06:02:56;102189.53;;;5.48;75.55
30614;BME280;17381;51.690;5.270;2023-02-16T06:08:48;102250.13;;;5.85;75.40
30614;BME280;17381;51.690;5.270;2023-02-16T06:11:47;102215.03;;;5.66;75.49
30614;BME280;17381;51.690;5.270;2023-02-16T06:15:04;102263.22;;;5.88;75.42
30614;BME280;17381;51.690;5.270;2023-02-16T06:17:56;102243.13;;;5.81;75.64
30614;BME280;17381;51.690;5.270;2023-02-16T06:20:38;102276.34;;;5.93;75.68
30614;BME280;17381;51.690;5.270;2023-02-16T06:23:15;102265.09;;;5.95;75.87
30614;BME280;17381;51.690;5.270;2023-02-16T06:26:14;102265.09;;;5.95;75.67
30614;BME280;17381;51.690;5.270;2023-02-16T06:29:14;102259.09;;;5.99;75.61
30614;BME280;17381;51.690;5.270;2023-02-16T06:32:08;102270.38;;;5.97;75.50
30614;BME280;17381;51.690;5.270;2023-02-16T06:34:58;102272.94;;;5.95;75.99
30614;BME280;17381;51.690;5.270;2023-02-16T06:37:57;102278.25;;;6.00;75.70
30614;BME280;17381;51.690;5.270;2023-02-16T06:41:09;102273.00;;;6.00;75.65
30614;BME280;17381;51.690;5.270;2023-02-16T06:44:12;102269.50;;;5.98;75.77
30614;BME280;17381;51.690;5.270;2023-02-16T06:47:02;102265.19;;;6.00;76.10
30614;BME280;17381;51.690;5.270;2023-02-16T06:49:52;102269.44;;;5.95;75.73
30614;BME280;17381;51.690;5.270;2023-02-16T06:53:15;102276.47;;;5.99;76.04
30614;BME280;17381;51.690;5.270;2023-02-16T06:56:05;102290.41;;;6.01;76.17
30614;BME280;17381;51.690;5.270;2023-02-16T06:58:59;102295.75;;;6.07;76.00
30614;BME280;17381;51.690;5.270;2023-02-16T07:02:12;102286.09;;;6.03;76.09
30614;BME280;17381;51.690;5.270;2023-02-16T07:05:20;102237.13;;;5.88;76.25
30614;BME280;17381;51.690;5.270;2023-02-16T07:08:39;102283.78;;;6.21;76.29
30614;BME280;17381;51.690;5.270;2023-02-16T07:11:58;102287.34;;;6.26;76.21
30614;BME280;17381;51.690;5.270;2023-02-16T07:15:01;102229.53;;;6.00;76.24
30614;BME280;17381;51.690;5.270;2023-02-16T07:17:54;102243.72;;;6.18;75.91
30614;BME280;17381;51.690;5.270;2023-02-16T07:21:12;102271.91;;;6.42;75.91
30614;BME280;17381;51.690;5.270;2023-02-16T07:24:08;102269.34;;;6.43;75.61
30614;BME280;17381;51.690;5.270;2023-02-16T07:26:43;102285.13;;;6.52;75.63
30614;BME280;17381;51.690;5.270;2023-02-16T07:32:38;102277.41;;;6.60;75.41
30614;BME280;17381;51.690;5.270;2023-02-16T07:35:13;102285.34;;;6.66;75.60
30614;BME280;17381;51.690;5.270;2023-02-16T07:38:47;102281.06;;;6.71;75.53
30614;BME280;17381;51.690;5.270;2023-02-16T07:41:25;102288.94;;;6.74;75.33
30614;BME280;17381;51.690;5.270;2023-02-16T07:44:10;102277.59;;;6.75;75.64
30614;BME280;17381;51.690;5.270;2023-02-16T07:46:59;102286.38;;;6.81;75.46
30614;BME280;17381;51.690;5.270;2023-02-16T07:49:36;102289.91;;;6.83;75.69
30614;BME280;17381;51.690;5.270;2023-02-16T07:52:34;102292.53;;;6.86;75.09
30614;BME280;17381;51.690;5.270;2023-02-16T07:55:41;102261.75;;;6.63;75.23
30614;BME280;17381;51.690;5.270;2023-02-16T07:58:40;102289.97;;;6.89;75.47
30614;BME280;17381;51.690;5.270;2023-02-16T08:01:18;102225.03;;;6.51;74.81
30614;BME280;17381;51.690;5.270;2023-02-16T08:03:55;102283.81;;;6.84;75.34
30614;BME280;17381;51.690;5.270;2023-02-16T08:06:43;102306.59;;;6.94;75.08
30614;BME280;17381;51.690;5.270;2023-02-16T08:09:26;102307.50;;;6.96;75.23
30614;BME280;17381;51.690;5.270;2023-02-16T08:12:15;102295.28;;;6.95;75.00
30614;BME280;17381;51.690;5.270;2023-02-16T08:15:19;102314.59;;;7.06;74.64
30614;BME280;17381;51.690;5.270;2023-02-16T08:18:17;102315.56;;;7.13;75.16
30614;BME280;17381;51.690;5.270;2023-02-16T08:21:18;102321.69;;;7.16;74.39
30614;BME280;17381;51.690;5.270;2023-02-16T08:24:20;102312.13;;;7.20;74.96
30614;BME280;17381;51.690;5.270;2023-02-16T08:27:10;102309.50;;;7.17;74.60
30614;BME280;17381;51.690;5.270;2023-02-16T08:30:04;102320.97;;;7.28;74.70
30614;BME280;17381;51.690;5.270;2023-02-16T08:33:14;102314.84;;;7.26;74.49
30614;BME280;17381;51.690;5.270;2023-02-16T08:35:52;102321.94;;;7.36;74.25
30614;BME280;17381;51.690;5.270;2023-02-16T08:38:33;102324.63;;;7.44;74.70
30614;BME280;17381;51.690;5.270;2023-02-16T08:41:41;102316.78;;;7.44;74.58
30614;BME280;17381;51.690;5.270;2023-02-16T08:44:41;102322.94;;;7.51;74.37
30614;BME280;17381;51.690;5.270;2023-02-16T08:47:23;102317.72;;;7.51;74.04
30614;BME280;17381;51.690;5.270;2023-02-16T08:50:06;102327.31;;;7.50;74.07
30614;BME280;17381;51.690;5.270;2023-02-16T08:52:56;102337.88;;;7.56;74.06
30614;BME280;17381;51.690;5.270;2023-02-16T08:55:49;102337.81;;;7.53;73.62
30614;BME280;17381;51.690;5.270;2023-02-16T08:58:41;102337.88;;;7.56;73.90
30614;BME280;17381;51.690;5.270;2023-02-16T09:01:24;102344.00;;;7.61;74.28
30614;BME280;17381;51.690;5.270;2023-02-16T09:04:15;102337.91;;;7.62;74.07
30614;BME280;17381;51.690;5.270;2023-02-16T09:07:27;102345.78;;;7.65;74.38
30614;BME280;17381;51.690;5.270;2023-02-16T09:10:14;102346.69;;;7.68;74.21
30614;BME280;17381;51.690;5.270;2023-02-16T09:13:07;102336.22;;;7.68;74.03
30614;BME280;17381;51.690;5.270;2023-02-16T09:16:17;102333.59;;;7.66;74.37
30614;BME280;17381;51.690;5.270;2023-02-16T09:19:05;102339.59;;;7.59;74.81
30614;BME280;17381;51.690;5.270;2023-02-16T09:22:22;102337.63;;;7.38;75.77
30614;BME280;17381;51.690;5.270;2023-02-16T09:25:20;102353.31;;;7.38;76.18
30614;BME280;17381;51.690;5.270;2023-02-16T09:28:06;102355.91;;;7.33;76.90
30614;BME280;17381;51.690;5.270;2023-02-16T09:31:10;102334.91;;;7.30;77.42
30614;BME280;17381;51.690;5.270;2023-02-16T09:34:04;102340.13;;;7.26;77.51
30614;BME280;17381;51.690;5.270;2023-02-16T09:36:54;102330.41;;;7.15;78.45
30614;BME280;17381;51.690;5.270;2023-02-16T09:39:47;102333.94;;;7.19;78.65
30614;BME280;17381;51.690;5.270;2023-02-16T09:42:49;102325.19;;;7.15;79.20
30614;BME280;17381;51.690;5.270;2023-02-16T09:46:04;102337.34;;;7.15;79.27
30614;BME280;17381;51.690;5.270;2023-02-16T09:55:14;102327.59;;;7.02;80.57
30614;BME280;17381;51.690;5.270;2023-02-16T09:58:27;102344.28;;;7.11;80.54
30614;BME280;17381;51.690;5.270;2023-02-16T10:08:38;102342.41;;;7.01;81.52
30614;BME280;17381;51.690;5.270;2023-02-16T10:18:06;102341.66;;;7.11;82.22
30614;BME280;17381;51.690;5.270;2023-02-16T10:21:01;102332.09;;;7.10;82.64
30614;BME280;17381;51.690;5.270;2023-02-16T10:24:16;102339.94;;;7.12;82.23
30614;BME280;17381;51.690;5.270;2023-02-16T10:27:12;102342.56;;;7.13;82.99
30614;BME280;17381;51.690;5.270;2023-02-16T10:30:14;102337.34;;;7.13;82.53
30614;BME280;17381;51.690;5.270;2023-02-16T10:36:41;102335.72;;;7.25;83.48
30614;BME280;17381;51.690;5.270;2023-02-16T10:46:41;102343.59;;;7.28;83.70
30614;BME280;17381;51.690;5.270;2023-02-16T10:49:37;102326.94;;;7.19;83.69
30614;BME280;17381;51.690;5.270;2023-02-16T10:52:24;102337.53;;;7.30;84.21
30614;BME280;17381;51.690;5.270;2023-02-16T10:55:13;102332.31;;;7.30;83.96
30614;BME280;17381;51.690;5.270;2023-02-16T10:58:35;102331.53;;;7.37;83.93
30614;BME280;17381;51.690;5.270;2023-02-16T11:01:41;102335.91;;;7.40;84.37
30614;BME280;17381;51.690;5.270;2023-02-16T11:04:51;102330.81;;;7.49;84.02
30614;BME280;17381;51.690;5.270;2023-02-16T11:07:54;102323.91;;;7.59;84.27
30614;BME280;17381;51.690;5.270;2023-02-16T11:11:09;102277.56;;;7.44;84.52
30614;BME280;17381;51.690;5.270;2023-02-16T11:14:27;102284.72;;;7.63;84.54
30614;BME280;17381;51.690;5.270;2023-02-16T11:17:26;102333.06;;;8.02;84.68
30614;BME280;17381;51.690;5.270;2023-02-16T11:20:07;102321.78;;;8.08;84.24
30614;BME280;17381;51.690;5.270;2023-02-16T11:22:54;102308.69;;;8.13;84.27
30614;BME280;17381;51.690;5.270;2023-02-16T11:26:19;102306.19;;;8.25;83.97
30614;BME280;17381;51.690;5.270;2023-02-16T11:29:32;102281.78;;;8.30;83.43
30614;BME280;17381;51.690;5.270;2023-02-16T11:32:32;102297.66;;;8.49;83.21
30614;BME280;17381;51.690;5.270;2023-02-16T11:35:21;102292.50;;;8.60;83.10
30614;BME280;17381;51.690;5.270;2023-02-16T11:38:20;102291.66;;;8.68;82.59
30614;BME280;17381;51.690;5.270;2023-02-16T11:41:22;102296.97;;;8.82;82.47
30614;BME280;17381;51.690;5.270;2023-02-16T11:44:41;102290.91;;;8.89;81.76
30614;BME280;17381;51.690;5.270;2023-02-16T11:48:02;102285.66;;;8.95;81.57
30614;BME280;17381;51.690;5.270;2023-02-16T11:51:09;102278.72;;;8.99;81.55
30614;BME280;17381;51.690;5.270;2023-02-16T11:54:15;102274.34;;;9.07;81.39
30614;BME280;17381;51.690;5.270;2023-02-16T11:57:13;102276.16;;;9.19;81.12
30614;BME280;17381;51.690;5.270;2023-02-16T12:25:27;102250.72;;;10.82;78.04
30614;BME280;17381;51.690;5.270;2023-02-16T12:27:53;102239.56;;;11.87;77.29
30614;BME280;17381;51.690;5.270;2023-02-16T12:44:07;102179.59;;;15.61;65.74
30614;BME280;17381;51.690;5.270;2023-02-16T12:47:49;102183.97;;;16.30;64.92
30614;BME280;17381;51.690;5.270;2023-02-16T12:50:41;102192.38;;;17.07;62.11
30614;BME280;17381;51.690;5.270;2023-02-16T12:57:02;102173.28;;;17.49;57.17
30614;BME280;17381;51.690;5.270;2023-02-16T13:01:19;102170.16;;;17.63;56.70
30614;BME280;17381;51.690;5.270;2023-02-16T13:08:04;102158.75;;;17.86;55.67
30614;BME280;17381;51.690;5.270;2023-02-16T13:32:05;102135.56;;;15.57;57.47
30614;BME280;17381;51.690;5.270;2023-02-16T13:38:54;102123.50;;;15.43;58.61
30614;BME280;17381;51.690;5.270;2023-02-16T13:44:47;102128.19;;;14.96;59.43
30614;BME280;17381;51.690;5.270;2023-02-16T13:47:31;102122.63;;;14.70;59.78
30614;BME280;17381;51.690;5.270;2023-02-16T13:50:54;102120.41;;;14.48;60.46
30614;BME280;17381;51.690;5.270;2023-02-16T13:54:04;102099.84;;;14.19;60.74
30614;BME280;17381;51.690;5.270;2023-02-16T14:57:15;102050.75;;;13.11;65.55
30614;BME280;17381;51.690;5.270;2023-02-16T15:00:03;102049.03;;;13.08;65.53
30614;BME280;17381;51.690;5.270;2023-02-16T15:06:57;102046.50;;;13.01;65.80
30614;BME280;17381;51.690;5.270;2023-02-16T15:10:06;102059.72;;;13.01;65.48
30614;BME280;17381;51.690;5.270;2023-02-16T15:13:08;102040.56;;;12.90;65.09
30614;BME280;17381;51.690;5.270;2023-02-16T15:16:21;102041.47;;;12.88;65.06
30614;BME280;17381;51.690;5.270;2023-02-16T15:19:26;102038.81;;;12.88;65.13
30614;BME280;17381;51.690;5.270;2023-02-16T15:22:42;102036.19;;;12.85;65.76
30614;BME280;17381;51.690;5.270;2023-02-16T15:25:39;102047.81;;;12.75;65.49
30614;BME280;17381;51.690;5.270;2023-02-16T15:28:49;102054.09;;;12.66;65.62
30614;BME280;17381;51.690;5.270;2023-02-16T15:31:44;102033.31;;;12.43;65.92
30614;BME280;17381;51.690;5.270;2023-02-16T15:34:34;102039.56;;;12.36;66.31
30614;BME280;17381;51.690;5.270;2023-02-16T15:37:30;102049.25;;;12.37;66.75
30614;BME280;17381;51.690;5.270;2023-02-16T15:40:35;102053.00;;;12.18;68.14
30614;BME280;17381;51.690;5.270;2023-02-16T15:46:43;102047.25;;;11.84;70.14
30614;BME280;17381;51.690;5.270;2023-02-16T15:49:43;102042.16;;;11.67;70.86
30614;BME280;17381;51.690;5.270;2023-02-16T15:52:48;102048.38;;;11.63;71.39
